Time;durP1;ratioP1;P1;durP2;ratioP2;P2;SDS_P1;SDS_P2;PMS_P1;PMS_P2;Temp;Humidity;BMP_temperature;BMP_pressure;BME280_temperature;BME280_humidity;BME280_pressure;Samples;Min_cycle;Max_cycle;Signal;HPM_P1;HPM_P2
2022/10/08 00:00:54;;;;;;;5.13;2.70;;;12.80;99.90;;;;;;5049973;28;20481;-38
2022/10/08 00:03:21;;;;;;;7.37;3.47;;;12.80;99.90;;;;;;5049488;28;20500;-38
2022/10/08 00:05:55;;;;;;;5.73;3.30;;;12.80;99.90;;;;;;5050057;28;20463;-37
2022/10/08 00:08:21;;;;;;;7.60;3.00;;;12.70;99.90;;;;;;5050004;28;20416;-37
2022/10/08 00:11:02;;;;;;;9.13;4.33;;;12.70;99.90;;;;;;5050119;28;20876;-37
2022/10/08 00:13:39;;;;;;;7.07;3.60;;;12.70;99.90;;;;;;5049007;28;20446;-38
2022/10/08 00:16:16;;;;;;;8.53;3.40;;;12.70;99.90;;;;;;5050046;28;20470;-38
2022/10/08 00:18:43;;;;;;;7.50;3.40;;;12.70;99.90;;;;;;5049773;28;20503;-37
2022/10/08 00:21:13;;;;;;;10.67;2.80;;;12.70;99.90;;;;;;5036121;28;20417;-38
2022/10/08 00:23:43;;;;;;;5.07;2.90;;;12.80;99.90;;;;;;5029091;28;20428;-37
2022/10/08 00:26:10;;;;;;;10.27;3.80;;;12.70;99.90;;;;;;5029906;28;20472;-37
2022/10/08 00:28:37;;;;;;;5.97;3.63;;;12.70;99.90;;;;;;5030037;28;20425;-38
2022/10/08 00:31:12;;;;;;;7.20;3.00;;;12.70;99.90;;;;;;5029784;28;20503;-38
2022/10/08 00:33:38;;;;;;;5.80;3.20;;;12.70;99.90;;;;;;5029188;28;20424;-38
2022/10/08 00:36:06;;;;;;;8.20;3.23;;;12.70;99.90;;;;;;5029644;28;20437;-37
2022/10/08 00:38:33;;;;;;;7.40;3.07;;;12.60;99.90;;;;;;5029658;28;20457;-37
2022/10/08 00:40:59;;;;;;;9.27;3.50;;;12.60;99.90;;;;;;5029933;28;20428;-38
2022/10/08 00:43:46;;;;;;;8.13;3.73;;;12.60;99.90;;;;;;5026747;28;20461;-37
2022/10/08 00:46:24;;;;;;;7.83;2.97;;;12.70;99.90;;;;;;5029709;28;20425;-37
2022/10/08 00:49:17;;;;;;;7.13;2.93;;;12.70;99.90;;;;;;5029368;28;20793;-37
2022/10/08 00:51:48;;;;;;;10.67;3.33;;;12.70;99.90;;;;;;5029286;28;20433;-38
2022/10/08 00:54:15;;;;;;;6.60;3.97;;;12.70;99.90;;;;;;5023057;28;20898;-38
2022/10/08 00:56:42;;;;;;;7.60;3.43;;;12.80;99.90;;;;;;5029785;28;20448;-37
2022/10/08 00:59:10;;;;;;;10.70;3.70;;;12.70;99.90;;;;;;5032761;28;20490;-37
2022/10/08 01:01:36;;;;;;;4.97;2.90;;;12.70;99.90;;;;;;5033439;28;20515;-38
2022/10/08 01:04:05;;;;;;;5.63;3.00;;;12.70;99.90;;;;;;5032860;28;20444;-37
2022/10/08 01:06:54;;;;;;;11.80;3.60;;;12.70;99.90;;;;;;5033426;28;20431;-37
2022/10/08 01:09:39;;;;;;;8.70;3.17;;;12.70;99.90;;;;;;5033445;28;20428;-37
2022/10/08 01:12:21;;;;;;;6.30;2.80;;;12.70;99.90;;;;;;5033405;28;20435;-38
2022/10/08 01:14:50;;;;;;;5.70;2.80;;;12.70;99.90;;;;;;5032848;28;20909;-37
2022/10/08 01:17:47;;;;;;;5.53;2.80;;;12.80;99.90;;;;;;5033381;28;20428;-37
2022/10/08 01:20:57;;;;;;;5.90;2.83;;;12.70;99.90;;;;;;5033638;28;20467;-37
2022/10/08 01:23:26;;;;;;;7.77;2.73;;;12.80;99.90;;;;;;5025332;28;20796;-37
2022/10/08 01:25:54;;;;;;;5.63;3.07;;;12.80;99.90;;;;;;5031896;28;20422;-37
2022/10/08 01:28:30;;;;;;;5.47;2.70;;;12.80;99.90;;;;;;5032771;28;20417;-37
2022/10/08 01:31:29;;;;;;;4.67;2.70;;;12.80;99.90;;;;;;5032960;28;20416;-37
2022/10/08 01:34:14;;;;;;;5.60;4.30;;;12.70;99.90;;;;;;5032492;28;20417;-38
2022/10/08 01:36:47;;;;;;;5.80;3.00;;;12.70;99.90;;;;;;5032582;28;20428;-37
2022/10/08 01:39:17;;;;;;;5.70;2.60;;;12.60;99.90;;;;;;5032811;28;20464;-37
2022/10/08 01:41:48;;;;;;;9.17;3.50;;;12.70;99.90;;;;;;5032874;28;20950;-37
2022/10/08 01:44:34;;;;;;;7.27;3.23;;;12.70;99.90;;;;;;5032130;28;20445;-37
2022/10/08 01:47:05;;;;;;;4.93;2.60;;;12.70;99.90;;;;;;5032303;28;20771;-37
2022/10/08 01:49:38;;;;;;;4.13;2.63;;;12.70;99.90;;;;;;5031870;28;20432;-37
2022/10/08 01:52:09;;;;;;;3.90;2.57;;;12.70;99.90;;;;;;5031699;28;20428;-37
2022/10/08 01:54:38;;;;;;;5.23;2.87;;;12.70;99.90;;;;;;5030963;28;20452;-37
2022/10/08 01:57:08;;;;;;;6.30;2.90;;;12.80;99.90;;;;;;5032380;28;20428;-37
2022/10/08 01:59:41;;;;;;;7.93;3.07;;;12.70;99.90;;;;;;5032284;28;20550;-37
2022/10/08 02:02:19;;;;;;;6.10;2.70;;;12.60;99.90;;;;;;5032559;28;20776;-37
2022/10/08 02:04:45;;;;;;;6.50;2.90;;;12.70;99.90;;;;;;5032020;28;20441;-37
2022/10/08 02:07:15;;;;;;;5.57;3.20;;;12.70;99.90;;;;;;5032310;28;20846;-38
2022/10/08 02:09:45;;;;;;;7.07;2.57;;;12.70;99.90;;;;;;5031598;28;20460;-37
2022/10/08 02:12:11;;;;;;;7.60;3.10;;;12.70;99.90;;;;;;5031715;28;20436;-38
2022/10/08 02:14:41;;;;;;;7.77;3.20;;;12.80;99.90;;;;;;5031699;28;20463;-38
2022/10/08 02:17:17;;;;;;;7.97;2.80;;;12.80;99.90;;;;;;5032187;28;20456;-37
2022/10/08 02:19:58;;;;;;;8.13;2.57;;;12.90;99.90;;;;;;5032948;28;20461;-38
2022/10/08 02:22:31;;;;;;;3.57;2.70;;;12.80;99.90;;;;;;5031669;28;20475;-37
2022/10/08 02:25:05;;;;;;;6.77;3.00;;;12.80;99.90;;;;;;5031452;28;20479;-38
2022/10/08 02:27:50;;;;;;;10.87;3.13;;;12.70;99.90;;;;;;5032013;28;20421;-38
2022/10/08 02:30:16;;;;;;;9.03;2.50;;;12.70;99.90;;;;;;5032070;28;20409;-37
2022/10/08 02:32:53;;;;;;;9.37;3.57;;;12.80;99.90;;;;;;5031179;28;20428;-37
2022/10/08 02:35:42;;;;;;;6.60;2.83;;;12.80;99.90;;;;;;5030733;28;20416;-38
2022/10/08 02:38:17;;;;;;;6.77;2.43;;;12.80;99.90;;;;;;5031662;28;20463;-38
2022/10/08 02:40:48;;;;;;;6.73;2.80;;;12.80;99.90;;;;;;5031697;28;20420;-38
2022/10/08 02:43:22;;;;;;;9.00;2.87;;;12.80;99.90;;;;;;5030755;28;20496;-37
2022/10/08 02:46:03;;;;;;;5.73;3.10;;;12.80;99.90;;;;;;5031707;28;20738;-38
2022/10/08 02:48:30;;;;;;;3.83;2.37;;;12.80;99.90;;;;;;5031574;28;20429;-38
2022/10/08 02:51:09;;;;;;;6.53;2.67;;;12.80;99.90;;;;;;5031473;28;20971;-38
2022/10/08 02:53:38;;;;;;;6.37;2.87;;;12.80;99.90;;;;;;5030576;28;20421;-37
2022/10/08 02:56:16;;;;;;;7.57;2.83;;;12.80;99.90;;;;;;5030807;28;20429;-38
2022/10/08 02:58:44;;;;;;;7.40;2.70;;;12.80;99.90;;;;;;5031227;28;20488;-38
2022/10/08 03:01:34;;;;;;;6.37;2.40;;;12.90;99.90;;;;;;5031430;28;20421;-37
2022/10/08 03:04:03;;;;;;;6.30;3.30;;;12.90;99.90;;;;;;5030602;28;20424;-37
2022/10/08 03:06:30;;;;;;;4.27;2.80;;;12.90;99.90;;;;;;5031181;28;20437;-39
2022/10/08 03:08:58;;;;;;;11.00;3.50;;;12.90;99.90;;;;;;5017875;28;20428;-38
2022/10/08 03:11:24;;;;;;;7.30;2.20;;;13.00;99.90;;;;;;5031177;28;20461;-37
2022/10/08 03:13:57;;;;;;;4.67;3.10;;;13.00;99.90;;;;;;5026727;28;20487;-38
2022/10/08 03:16:26;;;;;;;7.20;2.70;;;13.00;99.90;;;;;;5026103;28;20887;-37
2022/10/08 03:18:52;;;;;;;7.83;2.70;;;13.10;99.90;;;;;;5027241;28;20453;-37
2022/10/08 03:21:19;;;;;;;7.00;3.07;;;13.10;99.90;;;;;;5026594;28;20422;-37
2022/10/08 03:23:45;;;;;;;6.63;2.70;;;13.10;99.90;;;;;;5030531;28;20418;-38
2022/10/08 03:26:10;;;;;;;8.30;1.93;;;13.10;99.90;;;;;;5030947;28;20421;-39
2022/10/08 03:28:36;;;;;;;7.27;2.60;;;13.20;99.90;;;;;;5029411;28;20197;-37
2022/10/08 03:31:05;;;;;;;7.90;2.73;;;13.10;99.90;;;;;;5030488;28;20190;-37
2022/10/08 03:33:32;;;;;;;5.67;2.60;;;13.10;99.90;;;;;;5030121;28;20186;-37
2022/10/08 03:35:58;;;;;;;8.37;2.90;;;13.10;99.90;;;;;;5030577;28;20427;-37
2022/10/08 03:38:23;;;;;;;5.10;2.87;;;13.10;99.90;;;;;;5030729;28;20543;-37
2022/10/08 03:40:54;;;;;;;8.67;2.90;;;13.10;99.90;;;;;;5030552;28;20417;-38
2022/10/08 03:43:20;;;;;;;7.40;3.27;;;13.00;99.90;;;;;;5030043;28;20189;-37
2022/10/08 03:45:53;;;;;;;5.93;3.53;;;13.10;99.90;;;;;;5030196;28;20756;-38
2022/10/08 03:48:20;;;;;;;7.93;3.03;;;13.00;99.90;;;;;;5030558;28;20421;-37
2022/10/08 03:50:56;;;;;;;7.93;3.30;;;13.10;99.90;;;;;;5030282;28;20504;-38
2022/10/08 03:53:23;;;;;;;8.53;3.03;;;13.00;99.90;;;;;;5029841;28;20931;-38
2022/10/08 03:55:49;;;;;;;10.10;4.50;;;13.00;99.90;;;;;;5026201;28;20409;-37
2022/10/08 03:58:15;;;;;;;10.13;3.90;;;12.90;99.90;;;;;;5029973;28;20488;-37
2022/10/08 04:00:40;;;;;;;9.03;4.30;;;12.90;99.90;;;;;;5030029;28;20186;-37
2022/10/08 04:03:07;;;;;;;7.30;4.30;;;12.80;99.90;;;;;;5028292;28;20483;-37
2022/10/08 04:05:32;;;;;;;8.60;4.10;;;12.90;99.90;;;;;;5029994;28;20202;-37
2022/10/08 04:07:58;;;;;;;9.50;4.30;;;12.80;99.90;;;;;;5028886;28;20441;-38
2022/10/08 04:10:24;;;;;;;8.53;4.27;;;12.70;99.90;;;;;;5028883;28;20651;-37
2022/10/08 04:12:50;;;;;;;9.00;4.00;;;12.70;99.90;;;;;;5029229;28;20437;-37
2022/10/08 04:15:16;;;;;;;8.10;5.10;;;12.70;99.90;;;;;;5030063;28;20225;-39
2022/10/08 04:17:41;;;;;;;8.23;4.60;;;12.70;99.90;;;;;;5030187;28;20214;-38
2022/10/08 04:20:08;;;;;;;4.93;4.23;;;12.80;99.90;;;;;;5030819;28;20483;-38
2022/10/08 04:22:34;;;;;;;8.17;4.10;;;12.70;99.90;;;;;;5029940;28;20541;-38
2022/10/08 04:24:59;;;;;;;10.97;4.50;;;12.80;99.90;;;;;;5029340;28;20475;-38
2022/10/08 04:27:25;;;;;;;6.40;4.03;;;12.80;99.90;;;;;;5029685;28;20194;-38
2022/10/08 04:29:51;;;;;;;8.43;3.70;;;12.90;99.90;;;;;;5030015;28;20264;-37
2022/10/08 04:32:16;;;;;;;8.97;4.10;;;12.90;99.90;;;;;;5029969;28;20428;-38
2022/10/08 04:34:42;;;;;;;6.50;4.07;;;12.90;99.90;;;;;;5028876;28;20229;-38
2022/10/08 04:37:08;;;;;;;7.03;3.90;;;12.80;99.90;;;;;;5029957;28;20193;-37
2022/10/08 04:39:33;;;;;;;8.23;4.10;;;12.80;99.90;;;;;;5029828;28;20214;-37
2022/10/08 04:41:59;;;;;;;8.77;3.87;;;12.80;99.90;;;;;;5029459;28;20264;-37
2022/10/08 04:44:25;;;;;;;6.97;4.13;;;12.80;99.90;;;;;;5029070;28;20189;-38
2022/10/08 04:46:50;;;;;;;11.03;3.87;;;12.70;99.90;;;;;;5029688;28;20198;-37
2022/10/08 04:49:18;;;;;;;6.53;3.93;;;12.70;99.90;;;;;;5028612;28;20202;-37
2022/10/08 04:51:44;;;;;;;11.67;4.03;;;12.70;99.90;;;;;;5029753;28;20650;-37
2022/10/08 04:54:10;;;;;;;6.70;3.97;;;12.60;99.90;;;;;;5028109;28;20436;-38
2022/10/08 04:56:35;;;;;;;9.43;4.03;;;12.50;99.90;;;;;;5029485;28;20195;-37
2022/10/08 04:59:02;;;;;;;7.33;4.30;;;12.50;99.90;;;;;;5029731;28;20472;-37
2022/10/08 05:01:29;;;;;;;8.47;4.47;;;12.50;99.90;;;;;;5028429;28;20277;-37
2022/10/08 05:03:56;;;;;;;6.10;4.30;;;12.60;99.90;;;;;;5028979;28;20452;-37
2022/10/08 05:06:25;;;;;;;8.03;4.80;;;12.60;99.90;;;;;;5029553;28;20467;-37
2022/10/08 05:08:51;;;;;;;5.43;4.10;;;12.70;99.90;;;;;;5029483;28;20799;-37
2022/10/08 05:11:18;;;;;;;9.10;4.17;;;12.70;99.90;;;;;;5029296;28;20425;-37
2022/10/08 05:13:52;;;;;;;8.50;4.93;;;12.70;99.90;;;;;;5028932;28;20424;-38
2022/10/08 05:16:18;;;;;;;9.90;4.67;;;12.70;99.90;;;;;;5029479;28;20457;-38
2022/10/08 05:18:44;;;;;;;7.60;4.40;;;12.60;99.90;;;;;;5026791;28;20473;-37
2022/10/08 05:21:16;;;;;;;7.00;5.60;;;12.60;99.90;;;;;;5029925;28;20429;-38
2022/10/08 05:23:42;;;;;;;6.53;5.00;;;12.60;99.90;;;;;;5027330;28;20993;-37
2022/10/08 05:26:18;;;;;;;7.70;5.40;;;12.70;99.90;;;;;;5029265;28;20441;-38
2022/10/08 05:28:45;;;;;;;6.40;5.00;;;12.60;99.90;;;;;;5029095;28;20417;-37
2022/10/08 05:31:12;;;;;;;8.47;5.20;;;12.60;99.90;;;;;;5045282;28;20459;-38
2022/10/08 05:33:38;;;;;;;7.23;5.23;;;12.60;99.90;;;;;;5048621;28;20436;-37
2022/10/08 05:36:05;;;;;;;12.13;5.70;;;12.60;99.90;;;;;;5049054;28;20421;-39
2022/10/08 05:38:31;;;;;;;9.37;5.73;;;12.60;99.90;;;;;;5048137;28;20218;-38
2022/10/08 05:41:10;;;;;;;7.23;5.10;;;12.70;99.90;;;;;;5047973;28;20473;-38
2022/10/08 05:43:36;;;;;;;6.50;5.43;;;12.70;99.90;;;;;;5048178;28;20424;-38
2022/10/08 05:46:03;;;;;;;6.47;5.50;;;12.70;99.90;;;;;;5050694;28;20771;-39
2022/10/08 05:48:28;;;;;;;10.47;5.63;;;12.60;99.90;;;;;;5046475;28;20269;-37
2022/10/08 05:50:54;;;;;;;6.47;5.80;;;12.60;99.90;;;;;;5032267;28;20520;-38
2022/10/08 05:53:19;;;;;;;8.10;6.07;;;12.50;99.90;;;;;;5032243;28;20224;-37
2022/10/08 05:55:45;;;;;;;12.33;6.10;;;12.40;99.90;;;;;;5030159;28;20182;-38
2022/10/08 05:58:11;;;;;;;11.17;5.70;;;12.40;99.90;;;;;;5025342;28;20872;-38
2022/10/08 06:00:36;;;;;;;9.87;6.33;;;12.40;99.90;;;;;;5031608;28;20189;-38
2022/10/08 06:03:02;;;;;;;10.80;6.60;;;12.50;99.90;;;;;;5031850;28;20190;-37
2022/10/08 06:05:28;;;;;;;6.37;5.30;;;12.50;99.90;;;;;;5031993;28;20213;-37
2022/10/08 06:07:56;;;;;;;8.73;6.43;;;12.50;99.90;;;;;;5031235;28;20190;-38
2022/10/08 06:10:23;;;;;;;9.60;7.30;;;12.50;99.90;;;;;;5036145;28;20189;-37
2022/10/08 06:12:49;;;;;;;7.87;5.37;;;12.40;99.90;;;;;;5039419;28;20485;-38
2022/10/08 06:15:15;;;;;;;8.73;6.00;;;12.50;99.90;;;;;;5032041;28;20504;-37
2022/10/08 06:17:40;;;;;;;16.60;6.50;;;12.50;99.90;;;;;;5032211;28;20198;-37
2022/10/08 06:20:06;;;;;;;7.97;7.17;;;12.50;99.90;;;;;;5033503;28;20240;-38
2022/10/08 06:22:32;;;;;;;9.53;7.40;;;12.50;99.90;;;;;;5030553;28;20210;-38
2022/10/08 06:24:58;;;;;;;10.23;6.83;;;12.50;99.90;;;;;;5031402;28;20413;-38
2022/10/08 06:27:23;;;;;;;9.83;7.10;;;12.50;99.90;;;;;;5032200;28;20190;-38
2022/10/08 06:29:49;;;;;;;7.33;6.60;;;12.60;99.90;;;;;;5031892;28;20201;-38
2022/10/08 06:32:14;;;;;;;10.00;6.77;;;12.50;99.90;;;;;;5031904;28;20277;-38
2022/10/08 06:34:40;;;;;;;8.67;7.30;;;12.50;99.90;;;;;;5031138;28;20186;-37
2022/10/08 06:37:06;;;;;;;11.60;6.67;;;12.50;99.90;;;;;;5031832;28;20190;-39
2022/10/08 06:39:32;;;;;;;10.37;6.90;;;12.50;99.90;;;;;;5031452;28;20468;-38
2022/10/08 06:41:57;;;;;;;11.80;7.00;;;12.50;99.90;;;;;;5031546;28;20316;-38
2022/10/08 06:44:23;;;;;;;8.33;6.63;;;12.40;99.90;;;;;;5031157;28;20181;-38
2022/10/08 06:46:49;;;;;;;10.80;7.03;;;12.40;99.90;;;;;;5031569;28;20186;-38
2022/10/08 06:49:14;;;;;;;10.27;7.00;;;12.40;99.90;;;;;;5048544;28;20190;-38
2022/10/08 06:51:40;;;;;;;9.77;6.97;;;12.40;99.90;;;;;;5043935;28;20190;-38
2022/10/08 06:54:06;;;;;;;8.27;6.43;;;12.40;99.90;;;;;;5029383;28;20240;-38
2022/10/08 06:56:32;;;;;;;10.60;6.53;;;12.40;99.90;;;;;;5031102;28;20190;-38
2022/10/08 06:58:58;;;;;;;8.40;7.00;;;12.50;99.90;;;;;;5031077;28;20615;-39
2022/10/08 07:01:25;;;;;;;11.03;6.30;;;12.50;99.90;;;;;;5039803;28;20420;-38
2022/10/08 07:03:56;;;;;;;8.97;6.77;;;12.50;99.90;;;;;;5030393;28;20194;-38
2022/10/08 07:06:23;;;;;;;9.20;8.27;;;12.60;99.90;;;;;;5042855;28;20981;-38
2022/10/08 07:08:58;;;;;;;9.03;7.53;;;12.50;99.90;;;;;;5034859;28;20850;-38
2022/10/08 07:11:24;;;;;;;9.80;7.50;;;12.50;99.90;;;;;;5031085;28;20460;-39
2022/10/08 07:13:50;;;;;;;11.27;7.77;;;12.60;99.90;;;;;;5030358;28;20429;-37
2022/10/08 07:16:18;;;;;;;9.53;7.60;;;12.60;99.90;;;;;;5029500;28;20431;-39
2022/10/08 07:18:45;;;;;;;8.60;7.80;;;12.60;99.90;;;;;;5030039;28;20240;-38
2022/10/08 07:21:13;;;;;;;10.77;8.40;;;12.70;99.90;;;;;;5030775;28;20457;-38
2022/10/08 07:23:39;;;;;;;11.10;8.60;;;12.70;99.90;;;;;;5027833;28;20433;-37
2022/10/08 07:26:12;;;;;;;13.00;9.23;;;12.70;99.90;;;;;;5029181;28;20402;-38
2022/10/08 07:28:40;;;;;;;17.50;9.83;;;12.80;99.90;;;;;;5030459;28;20429;-38
2022/10/08 07:31:14;;;;;;;9.70;8.70;;;12.80;99.90;;;;;;5030596;28;20939;-38
2022/10/08 07:33:40;;;;;;;10.97;9.80;;;12.90;99.90;;;;;;5030128;28;20494;-38
2022/10/08 07:36:11;;;;;;;14.03;10.13;;;12.90;99.90;;;;;;5030955;28;20939;-37
2022/10/08 07:38:38;;;;;;;13.43;11.20;;;12.90;99.90;;;;;;5030448;28;20499;-37
2022/10/08 07:41:04;;;;;;;13.47;12.17;;;13.00;99.90;;;;;;5030108;28;20808;-38
2022/10/08 07:43:29;;;;;;;13.50;11.23;;;12.90;99.90;;;;;;5029661;28;20417;-38
2022/10/08 07:45:55;;;;;;;14.20;12.70;;;12.90;99.90;;;;;;5030486;28;21010;-37
2022/10/08 07:48:20;;;;;;;17.87;12.20;;;12.90;99.90;;;;;;5029322;28;20237;-39
2022/10/08 07:50:46;;;;;;;14.30;11.97;;;12.90;99.90;;;;;;5030229;28;20265;-38
2022/10/08 07:53:12;;;;;;;14.03;12.53;;;12.90;99.90;;;;;;5029804;28;20657;-38
2022/10/08 07:55:37;;;;;;;18.57;13.73;;;12.90;99.90;;;;;;5028727;28;20198;-37
2022/10/08 07:58:03;;;;;;;16.40;13.00;;;13.00;99.90;;;;;;5029456;28;20581;-38
2022/10/08 08:00:29;;;;;;;14.40;12.07;;;13.00;99.90;;;;;;5030043;28;20196;-38
2022/10/08 08:02:55;;;;;;;15.07;12.60;;;13.00;99.90;;;;;;5029666;28;20440;-38
2022/10/08 08:05:21;;;;;;;18.00;14.23;;;13.10;99.90;;;;;;5029943;28;20198;-38
2022/10/08 08:07:46;;;;;;;16.90;13.87;;;13.20;99.90;;;;;;5029594;28;20186;-38
2022/10/08 08:10:12;;;;;;;17.73;13.37;;;13.20;99.90;;;;;;5029995;28;20417;-38
2022/10/08 08:12:37;;;;;;;15.23;12.77;;;13.20;99.90;;;;;;5029611;28;20244;-38
2022/10/08 08:15:03;;;;;;;15.23;12.47;;;13.30;99.90;;;;;;5023955;28;20186;-38
2022/10/08 08:17:29;;;;;;;20.57;13.33;;;13.40;99.90;;;;;;5027374;28;20186;-38
2022/10/08 08:19:55;;;;;;;17.00;13.87;;;13.50;99.90;;;;;;5029737;28;20465;-38
2022/10/08 08:22:20;;;;;;;22.17;13.33;;;13.50;99.90;;;;;;5029717;28;20190;-37
2022/10/08 08:24:46;;;;;;;18.53;13.97;;;13.50;99.90;;;;;;5028565;28;20186;-37
2022/10/08 08:27:11;;;;;;;16.33;13.57;;;13.50;99.90;;;;;;5029534;28;20877;-38
2022/10/08 08:29:37;;;;;;;17.33;12.87;;;13.50;99.90;;;;;;5030110;28;20201;-38
2022/10/08 08:32:03;;;;;;;18.00;13.50;;;13.70;99.90;;;;;;5028770;28;20197;-38
2022/10/08 08:34:29;;;;;;;16.27;13.40;;;13.60;99.90;;;;;;5031551;28;20182;-38
2022/10/08 08:36:55;;;;;;;15.33;13.13;;;13.60;99.90;;;;;;5032924;28;20185;-38
2022/10/08 08:39:24;;;;;;;15.20;13.10;;;13.60;99.90;;;;;;5029644;28;20975;-37
2022/10/08 08:41:56;;;;;;;15.07;13.40;;;13.60;99.90;;;;;;5029710;28;20756;-38
2022/10/08 08:44:24;;;;;;;17.37;13.97;;;13.60;99.90;;;;;;5028987;28;20927;-38
2022/10/08 08:46:55;;;;;;;16.63;14.30;;;13.60;99.90;;;;;;5029782;28;20417;-38
2022/10/08 08:49:41;;;;;;;19.57;14.60;;;13.60;99.90;;;;;;5028584;28;20429;-38
2022/10/08 08:52:08;;;;;;;16.80;13.80;;;13.70;99.90;;;;;;5029211;28;20787;-37
2022/10/08 08:54:34;;;;;;;18.80;14.00;;;13.70;99.90;;;;;;5027543;28;20850;-38
2022/10/08 08:57:31;;;;;;;16.93;13.27;;;13.70;99.90;;;;;;5029718;28;20444;-38
2022/10/08 09:00:23;;;;;;;19.23;14.30;;;13.70;99.90;;;;;;5029488;28;20207;-38
2022/10/08 09:02:58;;;;;;;24.60;14.60;;;13.70;99.90;;;;;;5028854;28;20879;-38
2022/10/08 09:05:27;;;;;;;20.67;14.37;;;13.70;99.90;;;;;;5025904;28;20432;-40
2022/10/08 09:08:00;;;;;;;16.70;12.93;;;13.70;99.90;;;;;;5026086;28;20475;-38
2022/10/08 09:10:40;;;;;;;16.87;13.00;;;13.90;99.90;;;;;;5028145;28;20467;-37
2022/10/08 09:13:20;;;;;;;22.77;14.73;;;14.00;99.90;;;;;;5029071;28;20524;-38
2022/10/08 09:15:45;;;;;;;18.17;13.47;;;14.10;99.90;;;;;;5029340;28;20432;-39
2022/10/08 09:18:13;;;;;;;16.70;12.90;;;14.40;99.90;;;;;;5031472;28;20461;-38
2022/10/08 09:20:39;;;;;;;17.60;12.57;;;14.60;99.90;;;;;;5043028;28;20425;-38
2022/10/08 09:23:18;;;;;;;14.97;12.70;;;14.80;99.90;;;;;;5032694;28;20431;-37
2022/10/08 09:25:49;;;;;;;16.23;12.47;;;14.90;99.90;;;;;;5031999;28;20501;-37
2022/10/08 09:28:54;;;;;;;19.67;11.90;;;14.90;99.90;;;;;;5031980;28;21250;-38
2022/10/08 09:31:25;;;;;;;14.70;11.70;;;14.90;99.90;;;;;;5013335;28;20438;-38
2022/10/08 09:33:58;;;;;;;14.70;11.50;;;14.80;99.90;;;;;;5025339;28;20504;-38
2022/10/08 09:36:35;;;;;;;16.73;12.60;;;14.70;99.90;;;;;;5031045;28;20924;-38
2022/10/08 09:39:03;;;;;;;11.87;9.67;;;14.70;99.90;;;;;;5032906;28;20502;-38
2022/10/08 09:41:29;;;;;;;14.20;10.97;;;14.80;99.90;;;;;;5032791;28;20936;-38
2022/10/08 09:44:24;;;;;;;12.50;10.57;;;14.90;99.90;;;;;;5032404;28;20421;-38
2022/10/08 09:47:04;;;;;;;13.57;10.40;;;15.10;99.90;;;;;;5028026;28;20520;-38
2022/10/08 09:49:32;;;;;;;14.07;10.07;;;15.00;99.90;;;;;;5030681;28;20443;-37
2022/10/08 09:52:10;;;;;;;14.27;9.27;;;15.00;99.90;;;;;;5032627;28;20874;-39
2022/10/08 09:54:45;;;;;;;15.30;8.03;;;15.00;99.90;;;;;;5024954;28;20433;-38
2022/10/08 09:57:14;;;;;;;10.07;7.20;;;14.90;99.90;;;;;;5032425;28;20460;-39
2022/10/08 09:59:47;;;;;;;8.10;7.30;;;15.00;99.90;;;;;;5032794;28;20465;-38
2022/10/08 10:02:35;;;;;;;9.37;7.00;;;14.90;99.90;;;;;;5032303;28;20432;-38
2022/10/08 10:05:05;;;;;;;12.17;7.90;;;14.90;99.90;;;;;;5031863;28;20444;-38
2022/10/08 10:07:44;;;;;;;11.20;8.13;;;15.00;99.90;;;;;;5032560;28;20970;-38
2022/10/08 10:10:34;;;;;;;9.73;6.10;;;15.10;99.90;;;;;;5032490;28;20413;-39
2022/10/08 10:13:08;;;;;;;6.87;5.73;;;15.40;99.90;;;;;;5031579;28;20444;-38
2022/10/08 10:15:47;;;;;;;8.53;5.27;;;15.40;99.90;;;;;;5031741;28;20931;-39
2022/10/08 10:18:18;;;;;;;8.87;6.17;;;15.60;99.90;;;;;;5032166;28;20460;-38
2022/10/08 10:20:58;;;;;;;9.17;6.50;;;15.70;99.90;;;;;;5033979;28;20425;-38
2022/10/08 10:23:33;;;;;;;8.80;6.00;;;15.80;99.90;;;;;;5031546;28;20508;-37
2022/10/08 10:26:10;;;;;;;8.33;6.27;;;15.70;99.90;;;;;;5032108;28;20435;-38
2022/10/08 10:28:59;;;;;;;10.03;6.20;;;15.70;99.90;;;;;;5028841;28;20791;-38
2022/10/08 10:31:32;;;;;;;6.67;5.90;;;15.60;99.90;;;;;;5028139;28;21075;-38
2022/10/08 10:34:09;;;;;;;14.30;7.27;;;15.40;99.90;;;;;;5031338;28;20425;-38
2022/10/08 10:36:41;;;;;;;10.07;5.87;;;15.40;99.90;;;;;;5031623;28;21029;-38
2022/10/08 10:39:30;;;;;;;12.80;6.50;;;15.30;99.90;;;;;;5031795;28;20552;-38
2022/10/08 10:42:07;;;;;;;8.60;6.20;;;15.20;99.90;;;;;;5031754;28;20418;-39
2022/10/08 10:44:53;;;;;;;10.03;5.73;;;15.10;99.90;;;;;;5030796;28;20417;-38
2022/10/08 10:47:24;;;;;;;5.90;4.20;;;15.10;99.90;;;;;;5031775;28;20413;-38
2022/10/08 10:49:51;;;;;;;6.93;4.03;;;15.10;99.90;;;;;;5031765;28;20483;-38
2022/10/08 10:52:32;;;;;;;7.87;3.60;;;15.10;99.90;;;;;;5031460;28;20495;-38
2022/10/08 10:55:22;;;;;;;5.00;3.10;;;15.10;99.90;;;;;;5029591;28;20449;-39
2022/10/08 10:58:25;;;;;;;5.13;2.80;;;15.20;99.90;;;;;;5029184;28;21266;-38
2022/10/08 11:01:08;;;;;;;5.40;3.20;;;15.20;99.90;;;;;;5028405;28;20424;-38
2022/10/08 11:03:45;;;;;;;7.30;3.60;;;15.10;99.90;;;;;;5019960;28;20494;-38
2022/10/08 11:06:35;;;;;;;5.70;3.60;;;15.10;99.90;;;;;;5030071;28;20439;-38
2022/10/08 11:09:14;;;;;;;5.90;3.70;;;15.10;99.90;;;;;;5018726;28;20413;-38
2022/10/08 11:11:47;;;;;;;5.90;3.30;;;15.20;99.90;;;;;;5030895;28;20439;-38
2022/10/08 11:14:34;;;;;;;5.13;3.60;;;15.20;99.90;;;;;;5030528;28;20456;-37
2022/10/08 11:17:15;;;;;;;4.70;3.00;;;15.20;99.90;;;;;;5021428;28;20444;-38
2022/10/08 11:20:01;;;;;;;5.50;3.00;;;15.30;99.90;;;;;;5026841;28;20511;-38
2022/10/08 11:23:04;;;;;;;5.60;3.17;;;15.50;99.90;;;;;;5023861;28;20562;-38
2022/10/08 11:26:08;;;;;;;6.77;3.77;;;15.60;99.90;;;;;;5024937;28;20425;-38
2022/10/08 11:28:49;;;;;;;5.70;3.50;;;15.60;99.90;;;;;;5022588;28;20490;-38
2022/10/08 11:31:24;;;;;;;6.67;3.47;;;15.60;99.90;;;;;;5028241;28;20410;-38
2022/10/08 11:33:53;;;;;;;9.10;3.80;;;15.60;99.90;;;;;;5030036;28;20445;-38
2022/10/08 11:36:36;;;;;;;8.27;3.80;;;15.60;99.90;;;;;;5035443;28;20429;-38
2022/10/08 11:39:23;;;;;;;5.63;2.83;;;15.60;99.90;;;;;;5026136;28;20469;-37
2022/10/08 11:42:30;;;;;;;5.20;1.97;;;15.50;99.90;;;;;;5026536;28;20417;-37
2022/10/08 11:45:24;;;;;;;2.43;1.70;;;15.40;99.90;;;;;;5007304;28;20488;-38
2022/10/08 11:47:56;;;;;;;4.70;1.80;;;15.40;99.90;;;;;;5029409;28;20422;-38
2022/10/08 11:50:31;;;;;;;2.03;1.80;;;15.30;99.90;;;;;;5030466;28;20471;-37
2022/10/08 11:53:14;;;;;;;2.13;1.93;;;15.40;99.90;;;;;;5028021;28;20490;-38
2022/10/08 11:55:55;;;;;;;2.10;1.47;;;15.40;99.90;;;;;;5028981;28;20900;-38
2022/10/08 11:58:32;;;;;;;3.83;1.53;;;15.40;99.90;;;;;;5030458;28;20461;-38
2022/10/08 12:01:08;;;;;;;4.10;1.40;;;15.50;99.90;;;;;;5030406;28;20495;-38
2022/10/08 12:03:40;;;;;;;4.37;1.50;;;15.80;99.90;;;;;;5029632;28;20421;-37
2022/10/08 12:06:45;;;;;;;3.30;1.73;;;16.00;99.90;;;;;;5022974;28;21011;-38
2022/10/08 12:09:21;;;;;;;5.20;1.87;;;16.30;99.90;;;;;;5015256;28;20464;-37
2022/10/08 12:11:50;;;;;;;2.60;1.37;;;16.20;99.90;;;;;;5008542;28;20448;-38
2022/10/08 12:14:16;;;;;;;2.73;1.43;;;16.20;99.90;;;;;;5027378;28;20417;-38
2022/10/08 12:16:47;;;;;;;2.17;1.90;;;16.20;99.90;;;;;;5027908;28;21206;-37
2022/10/08 12:19:34;;;;;;;3.57;1.80;;;16.30;99.90;;;;;;5027528;28;20215;-37
2022/10/08 12:22:02;;;;;;;3.83;2.20;;;16.40;99.90;;;;;;5026782;28;20849;-37
2022/10/08 12:24:37;;;;;;;4.70;2.27;;;16.50;99.90;;;;;;5029231;28;20418;-37
2022/10/08 12:27:29;;;;;;;4.47;1.63;;;16.60;99.90;;;;;;5029059;28;20404;-37
2022/10/08 12:30:07;;;;;;;2.87;1.70;;;16.70;99.90;;;;;;5030157;28;20765;-38
2022/10/08 12:32:42;;;;;;;3.53;1.67;;;16.90;99.90;;;;;;5029719;28;20440;-37
2022/10/08 12:35:30;;;;;;;3.47;1.50;;;17.10;99.90;;;;;;5029902;28;20463;-37
2022/10/08 12:38:05;;;;;;;2.30;1.20;;;17.10;99.90;;;;;;5029847;28;20421;-37
2022/10/08 12:40:40;;;;;;;3.87;0.97;;;17.00;99.90;;;;;;5030064;28;20423;-37
2022/10/08 12:43:22;;;;;;;1.70;0.90;;;16.90;99.90;;;;;;5029295;28;20775;-38
2022/10/08 12:46:16;;;;;;;4.60;0.90;;;17.00;99.50;;;;;;5029645;28;20408;-37
2022/10/08 12:49:10;;;;;;;7.53;2.97;;;16.90;99.70;;;;;;5029477;28;20432;-38
2022/10/08 12:51:36;;;;;;;1.70;0.77;;;16.80;99.20;;;;;;5029234;28;20833;-37
2022/10/08 12:54:03;;;;;;;8.47;1.20;;;16.80;99.80;;;;;;5028170;28;20437;-37
2022/10/08 12:56:30;;;;;;;4.93;1.33;;;16.80;99.90;;;;;;5028484;28;20265;-38
2022/10/08 12:59:00;;;;;;;2.67;1.27;;;16.90;98.80;;;;;;5032480;28;20851;-38
2022/10/08 13:01:26;;;;;;;1.20;0.87;;;17.00;99.30;;;;;;5033742;28;20881;-38
2022/10/08 13:04:13;;;;;;;2.77;1.33;;;17.00;99.60;;;;;;5033008;28;20443;-37
2022/10/08 13:06:38;;;;;;;1.87;1.20;;;17.20;99.90;;;;;;5033426;28;21158;-37
2022/10/08 13:09:27;;;;;;;5.80;1.43;;;17.30;99.90;;;;;;5033695;28;20417;-37